Time;durP1;ratioP1;P1;durP2;ratioP2;P2;SDS_P1;SDS_P2;PMS_P1;PMS_P2;Temp;Humidity;BMP_temperature;BMP_pressure;BME280_temperature;BME280_humidity;BME280_pressure;Samples;Min_cycle;Max_cycle;Signal;HPM_P1;HPM_P2
2024/04/05 00:00:25;;;;;;;4.37;2.37;;;10.40;99.90;;;9.68;100.00;97855.13;5047145;28;20477;-68
2024/04/05 00:02:53;;;;;;;3.60;1.90;;;10.30;99.90;;;9.60;100.00;97858.06;5012818;28;20482;-67
2024/04/05 00:05:20;;;;;;;2.83;2.43;;;10.30;99.90;;;9.42;100.00;97861.44;5047890;28;20527;-68
2024/04/05 00:07:48;;;;;;;4.60;2.10;;;10.20;99.90;;;9.40;100.00;97858.13;5044425;28;20556;-69
2024/04/05 00:10:16;;;;;;;3.40;2.40;;;10.10;99.90;;;9.37;100.00;97863.97;5045662;28;20473;-69
2024/04/05 00:12:45;;;;;;;4.33;2.90;;;10.00;99.90;;;9.30;100.00;97862.09;5043351;28;20568;-70
2024/04/05 00:15:11;;;;;;;4.73;3.00;;;9.80;99.90;;;9.27;100.00;97867.91;5041577;28;20472;-69
2024/04/05 00:17:39;;;;;;;4.60;3.03;;;9.80;99.90;;;9.17;100.00;97878.28;5045076;28;20471;-69
2024/04/05 00:20:07;;;;;;;6.57;3.40;;;9.70;99.90;;;9.23;100.00;97872.06;5045201;28;20999;-69
2024/04/05 00:22:34;;;;;;;4.87;3.47;;;9.70;99.90;;;9.20;100.00;97864.41;5044173;28;20487;-69
2024/04/05 00:25:00;;;;;;;4.33;3.40;;;9.80;99.90;;;9.11;100.00;97871.88;5039376;28;21846;-69
2024/04/05 00:27:30;;;;;;;7.10;3.73;;;9.70;99.90;;;9.02;100.00;97867.75;5044797;28;20479;-69
2024/04/05 00:29:57;;;;;;;3.63;3.13;;;9.70;99.90;;;8.90;100.00;97870.25;5044386;28;20481;-69
2024/04/05 00:32:24;;;;;;;5.20;3.30;;;9.50;99.90;;;8.60;100.00;97824.88;5042870;28;20537;-69
2024/04/05 00:34:50;;;;;;;3.53;3.10;;;9.50;99.90;;;8.78;100.00;97878.94;5044112;28;20474;-69
2024/04/05 00:37:17;;;;;;;6.20;3.70;;;9.30;99.90;;;8.64;100.00;97874.59;5044257;28;20536;-69
2024/04/05 00:39:43;;;;;;;3.90;2.97;;;9.30;99.90;;;8.56;100.00;97891.78;5037870;28;20463;-69
2024/04/05 00:42:11;;;;;;;3.50;3.03;;;9.20;99.90;;;8.74;100.00;97883.09;5041671;28;20480;-69
2024/04/05 00:44:39;;;;;;;3.67;2.97;;;9.20;99.90;;;8.76;100.00;97886.41;5043518;28;20483;-67
2024/04/05 00:47:06;;;;;;;4.23;2.93;;;9.20;99.90;;;8.88;100.00;97883.91;5043123;28;20473;-68
2024/04/05 00:49:34;;;;;;;4.73;2.90;;;9.30;99.90;;;9.01;100.00;97891.16;5042165;28;20483;-68
2024/04/05 00:52:01;;;;;;;4.00;3.23;;;9.50;99.90;;;9.04;100.00;97898.00;5044964;28;20581;-69
2024/04/05 00:54:30;;;;;;;7.57;3.40;;;9.50;99.90;;;9.19;100.00;97887.00;5046646;28;20469;-68
2024/04/05 00:56:58;;;;;;;3.87;3.37;;;9.60;99.90;;;9.16;100.00;97890.09;5043952;28;20479;-68
2024/04/05 00:59:26;;;;;;;4.70;3.13;;;9.60;99.90;;;8.93;100.00;97883.31;5043899;28;20554;-69
2024/04/05 01:01:55;;;;;;;5.70;3.47;;;9.60;99.90;;;8.88;100.00;97840.00;5045519;28;20492;-68
2024/04/05 01:04:23;;;;;;;3.13;2.83;;;9.60;99.90;;;9.15;100.00;97891.16;5028246;28;21022;-68
2024/04/05 01:06:51;;;;;;;4.80;2.87;;;9.70;99.90;;;9.19;100.00;97895.09;5045701;28;20963;-69
2024/04/05 01:09:18;;;;;;;2.90;2.60;;;9.70;99.90;;;9.21;100.00;97876.84;5044870;28;20473;-69
2024/04/05 01:11:56;;;;;;;7.23;2.90;;;9.70;99.90;;;9.25;100.00;97882.63;5043147;28;20489;-69
2024/04/05 01:14:22;;;;;;;3.63;2.70;;;9.70;99.90;;;9.25;100.00;97883.47;5045369;28;20633;-68
2024/04/05 01:16:49;;;;;;;3.03;2.73;;;9.80;99.90;;;9.24;100.00;97884.50;5045628;28;20516;-68
2024/04/05 01:19:18;;;;;;;4.53;3.07;;;9.80;99.90;;;9.39;100.00;97883.44;5044034;28;20500;-70
2024/04/05 01:21:48;;;;;;;3.00;2.60;;;9.90;99.90;;;9.25;100.00;97883.47;5044053;28;20487;-68
2024/04/05 01:24:17;;;;;;;2.73;2.20;;;9.90;99.90;;;9.35;100.00;97870.38;5045273;28;20488;-69
2024/04/05 01:26:45;;;;;;;3.10;2.80;;;9.90;99.90;;;9.23;100.00;97869.38;5045278;28;20481;-68
2024/04/05 01:29:11;;;;;;;3.40;2.50;;;9.90;99.90;;;9.31;100.00;97881.81;5043718;28;20472;-68
2024/04/05 01:31:39;;;;;;;2.63;2.07;;;10.00;99.90;;;9.29;100.00;97881.19;5043602;28;21018;-69
2024/04/05 01:34:05;;;;;;;3.27;2.30;;;9.90;99.90;;;9.29;100.00;97891.97;5038500;28;20475;-68
2024/04/05 01:36:33;;;;;;;4.63;2.60;;;9.90;99.90;;;9.27;100.00;97876.00;5043253;28;20470;-69
2024/04/05 01:39:00;;;;;;;4.97;2.60;;;9.90;99.90;;;9.19;100.00;97868.16;5042592;28;21051;-68
2024/04/05 01:41:29;;;;;;;3.00;2.53;;;9.90;99.90;;;9.17;100.00;97864.81;5043492;28;20575;-68
2024/04/05 01:43:58;;;;;;;2.90;2.57;;;9.90;99.90;;;9.37;100.00;97869.34;5043242;28;20493;-68
2024/04/05 01:46:26;;;;;;;3.20;2.50;;;10.00;99.90;;;9.26;100.00;97868.13;5040960;28;20477;-69
2024/04/05 01:48:54;;;;;;;6.10;2.60;;;9.90;99.90;;;9.23;100.00;97869.38;5027158;28;20582;-69
2024/04/05 01:51:22;;;;;;;4.80;3.30;;;9.90;99.90;;;9.17;100.00;97864.81;5045391;28;20852;-69
2024/04/05 01:53:49;;;;;;;3.83;2.83;;;9.90;99.90;;;9.06;100.00;97850.09;5042317;28;20557;-69
2024/04/05 01:56:17;;;;;;;3.67;2.90;;;9.90;99.90;;;9.02;100.00;97852.41;5043593;28;20478;-69
2024/04/05 01:58:45;;;;;;;4.70;3.27;;;9.80;99.90;;;9.07;100.00;97849.91;5041442;28;20476;-69
2024/04/05 02:01:14;;;;;;;2.67;2.47;;;9.80;99.90;;;9.08;100.00;97858.81;5042738;28;20492;-70
2024/04/05 02:03:41;;;;;;;2.53;2.33;;;9.80;99.90;;;9.10;100.00;97859.44;5041392;28;20495;-69
2024/04/05 02:06:15;;;;;;;4.07;2.80;;;9.80;99.90;;;9.15;100.00;97856.94;5024905;28;21269;-69
2024/04/05 02:08:41;;;;;;;4.73;2.70;;;9.80;99.90;;;9.10;100.00;97854.06;5041667;28;21420;-70
2024/04/05 02:11:09;;;;;;;4.40;3.10;;;9.90;99.90;;;9.03;100.00;97851.38;5044872;28;20579;-69
2024/04/05 02:13:35;;;;;;;3.57;3.13;;;9.80;99.90;;;9.23;100.00;97849.66;5039117;28;20475;-69
2024/04/05 02:16:05;;;;;;;4.80;2.80;;;9.90;99.90;;;9.10;100.00;97848.66;5043708;28;20522;-69
2024/04/05 02:18:34;;;;;;;3.50;2.67;;;9.80;99.90;;;9.11;100.00;97847.63;5042566;28;20988;-69
2024/04/05 02:21:01;;;;;;;4.90;3.00;;;9.80;99.90;;;9.14;100.00;97843.66;5042000;28;20484;-69
2024/04/05 02:23:28;;;;;;;5.80;3.63;;;9.80;99.90;;;9.13;100.00;97844.72;5041019;28;20547;-69
2024/04/05 02:25:56;;;;;;;2.93;2.60;;;9.80;99.90;;;9.16;100.00;97847.81;5042948;28;20476;-69
2024/04/05 02:28:22;;;;;;;3.27;2.97;;;9.80;99.90;;;9.16;100.00;97833.50;5042399;28;20484;-69
2024/04/05 02:30:49;;;;;;;3.13;2.67;;;9.90;99.90;;;9.19;100.00;97843.88;5043727;28;20531;-70
2024/04/05 02:33:23;;;;;;;5.87;3.20;;;9.90;99.90;;;9.27;100.00;97848.22;5039674;28;20958;-70
2024/04/05 02:36:00;;;;;;;3.23;2.50;;;9.90;99.90;;;9.25;100.00;97852.97;5043579;28;21118;-69
2024/04/05 02:38:26;;;;;;;3.13;2.83;;;9.90;99.90;;;9.27;100.00;97851.72;5042547;28;20465;-70
2024/04/05 02:40:55;;;;;;;7.67;2.70;;;9.90;99.90;;;9.31;100.00;97850.25;5026170;28;20515;-69
2024/04/05 02:43:22;;;;;;;6.13;2.70;;;10.00;99.90;;;9.32;100.00;97851.91;5039642;28;20566;-69
2024/04/05 02:45:49;;;;;;;3.90;2.53;;;10.00;99.90;;;9.38;100.00;97850.25;5021468;28;20533;-69
2024/04/05 02:48:18;;;;;;;3.57;2.37;;;10.10;99.90;;;9.06;100.00;97777.34;5040240;28;20477;-69
2024/04/05 02:50:45;;;;;;;2.20;2.00;;;10.10;99.90;;;9.43;100.00;97857.69;5041536;28;20928;-68
2024/04/05 02:53:11;;;;;;;2.43;2.20;;;10.20;99.90;;;9.59;100.00;97842.94;5041055;28;20522;-68
2024/04/05 02:55:38;;;;;;;3.23;2.10;;;10.20;99.90;;;9.34;100.00;97828.28;5042511;28;20494;-69
2024/04/05 02:58:05;;;;;;;4.30;2.70;;;10.20;99.90;;;9.47;100.00;97851.69;5041990;28;20478;-69
2024/04/05 03:00:32;;;;;;;3.60;2.30;;;10.20;99.90;;;9.51;100.00;97860.19;5043819;28;20484;-69
2024/04/05 03:02:59;;;;;;;4.47;3.20;;;10.30;99.90;;;9.55;100.00;97864.09;5042080;28;20556;-69
2024/04/05 03:05:26;;;;;;;3.13;2.20;;;10.30;99.90;;;9.73;100.00;97862.59;5041599;28;20484;-69
2024/04/05 03:07:54;;;;;;;2.90;2.10;;;10.40;99.90;;;9.74;100.00;97858.84;5040423;28;20799;-69
2024/04/05 03:10:20;;;;;;;5.30;2.30;;;10.40;99.90;;;9.69;100.00;97866.75;5042710;28;21089;-68
2024/04/05 03:12:47;;;;;;;3.70;2.50;;;10.40;99.90;;;9.72;100.00;97866.31;5039419;28;20489;-69
2024/04/05 03:15:14;;;;;;;5.17;2.40;;;10.40;99.90;;;9.79;100.00;97867.13;5037532;28;20975;-69
2024/04/05 03:17:41;;;;;;;4.53;2.70;;;10.40;99.90;;;9.83;100.00;97862.97;5022296;28;20562;-71
2024/04/05 03:20:12;;;;;;;4.73;2.73;;;10.50;99.90;;;9.72;100.00;97867.16;5041062;28;20545;-70
2024/04/05 03:22:42;;;;;;;4.87;2.50;;;10.50;99.90;;;9.82;100.00;97872.09;5041135;28;20472;-68
2024/04/05 03:25:08;;;;;;;3.47;3.07;;;10.50;99.90;;;9.84;100.00;97864.63;5040014;28;20554;-69
2024/04/05 03:27:41;;;;;;;2.87;2.60;;;10.50;99.90;;;9.78;100.00;97860.06;5038574;28;20589;-68
2024/04/05 03:30:09;;;;;;;3.83;2.30;;;10.50;99.90;;;9.90;100.00;97868.34;5041415;28;20488;-68
2024/04/05 03:32:40;;;;;;;4.70;2.43;;;10.50;99.90;;;9.86;100.00;97867.13;5040599;28;20554;-68
2024/04/05 03:35:06;;;;;;;5.07;2.67;;;10.50;99.90;;;9.96;100.00;97863.94;5041279;28;20516;-69
2024/04/05 03:37:35;;;;;;;4.17;2.60;;;10.60;99.90;;;9.90;100.00;97852.94;5041395;28;20513;-69
2024/04/05 03:40:05;;;;;;;3.07;2.40;;;10.60;99.90;;;9.96;100.00;97863.94;5040641;28;20500;-69
2024/04/05 03:42:33;;;;;;;4.43;2.20;;;10.60;99.90;;;9.72;100.00;97812.38;5039613;28;20485;-69
2024/04/05 03:45:03;;;;;;;5.20;3.20;;;10.60;99.90;;;9.98;100.00;97853.75;5006767;28;20555;-68
2024/04/05 03:47:34;;;;;;;2.97;2.27;;;10.70;99.90;;;9.57;100.00;97797.28;5039493;28;20476;-68
2024/04/05 03:50:00;;;;;;;2.97;2.30;;;10.70;99.90;;;10.05;100.00;97854.53;5040533;28;21304;-69
2024/04/05 03:52:29;;;;;;;4.17;2.20;;;10.70;99.90;;;10.07;100.00;97866.78;5040692;28;20482;-69
2024/04/05 03:54:55;;;;;;;4.20;3.20;;;10.70;99.90;;;10.09;100.00;97866.59;5039753;28;20477;-69
2024/04/05 03:57:24;;;;;;;5.53;2.77;;;10.70;99.90;;;10.09;100.00;97873.84;5041497;28;20484;-69
2024/04/05 03:59:51;;;;;;;5.97;2.73;;;10.70;99.90;;;10.18;100.00;97870.66;5041574;28;20532;-69
2024/04/05 04:02:20;;;;;;;4.60;2.90;;;10.80;99.90;;;10.18;100.00;97878.75;5036737;28;20491;-69
2024/04/05 04:04:47;;;;;;;2.67;2.37;;;10.80;99.90;;;10.23;100.00;97882.69;5039222;28;20480;-69
2024/04/05 04:07:16;;;;;;;3.90;3.43;;;10.90;99.90;;;10.23;100.00;97878.13;5038498;28;20502;-70
2024/04/05 04:09:42;;;;;;;6.07;3.07;;;10.90;99.90;;;10.34;100.00;97876.59;5037483;28;20475;-69
2024/04/05 04:12:09;;;;;;;5.33;2.33;;;10.90;99.90;;;10.31;100.00;97875.19;5038919;28;20482;-69
2024/04/05 04:14:38;;;;;;;6.17;2.90;;;10.90;99.90;;;10.33;100.00;97880.34;5038419;28;20465;-69
2024/04/05 04:17:06;;;;;;;3.97;3.03;;;10.90;99.90;;;10.47;100.00;97886.53;5039739;28;20480;-70
2024/04/05 04:19:32;;;;;;;2.53;2.33;;;11.00;99.90;;;10.44;100.00;97892.34;5039179;28;20480;-68
2024/04/05 04:22:01;;;;;;;4.40;2.63;;;11.00;99.90;;;10.49;100.00;97897.94;5040342;28;20487;-68
2024/04/05 04:24:29;;;;;;;2.13;1.97;;;11.10;99.90;;;10.53;100.00;97904.56;5005419;28;20610;-69
2024/04/05 04:26:56;;;;;;;3.40;2.53;;;11.10;99.90;;;10.44;100.00;97906.69;5039975;28;20476;-70
2024/04/05 04:29:23;;;;;;;4.30;3.10;;;11.20;99.90;;;10.46;100.00;97899.19;5038282;28;20534;-70
2024/04/05 04:31:53;;;;;;;4.30;2.70;;;11.20;99.90;;;10.46;100.00;97910.00;5027437;28;20505;-69
2024/04/05 04:34:20;;;;;;;3.60;2.90;;;11.20;99.90;;;10.51;100.00;97898.56;5041013;28;20480;-69
2024/04/05 04:36:47;;;;;;;3.33;2.90;;;11.10;99.90;;;10.53;100.00;97907.25;5060281;28;20793;-70
2024/04/05 04:39:15;;;;;;;4.10;3.10;;;11.10;99.90;;;10.54;100.00;97910.78;5043399;28;20486;-71
2024/04/05 04:41:42;;;;;;;3.40;3.03;;;11.10;99.90;;;10.53;100.00;97914.53;5044242;28;20510;-72
2024/04/05 04:44:08;;;;;;;3.80;3.10;;;11.10;99.90;;;10.47;100.00;97906.25;5042484;28;20484;-71
2024/04/05 04:46:36;;;;;;;4.97;2.73;;;11.10;99.90;;;10.62;100.00;97905.13;5038416;28;20545;-71
2024/04/05 04:49:04;;;;;;;8.37;3.23;;;11.20;99.90;;;10.56;100.00;97903.31;5045448;28;20473;-71
2024/04/05 04:51:32;;;;;;;3.87;2.60;;;11.20;99.90;;;10.53;100.00;97919.94;5045479;28;20563;-70
2024/04/05 04:53:59;;;;;;;4.63;3.23;;;11.20;99.90;;;10.60;100.00;97904.53;5043975;28;20501;-71
2024/04/05 04:56:30;;;;;;;3.97;3.40;;;11.20;99.90;;;10.71;100.00;97906.53;5043098;28;20473;-72
2024/04/05 04:58:56;;;;;;;6.90;2.90;;;11.20;99.90;;;10.63;100.00;97898.66;5046949;28;20503;-71
2024/04/05 05:01:25;;;;;;;6.87;3.17;;;11.20;99.90;;;10.20;100.00;97836.19;5043452;28;21001;-73
2024/04/05 05:03:52;;;;;;;4.83;3.10;;;11.20;99.90;;;10.79;100.00;97899.19;5042780;28;20479;-73
2024/04/05 05:06:20;;;;;;;4.50;2.60;;;11.30;99.90;;;10.90;100.00;97909.28;5044515;28;20562;-73
2024/04/05 05:08:47;;;;;;;2.90;2.53;;;11.40;99.90;;;10.94;100.00;97905.09;5042884;28;21110;-71
2024/04/05 05:11:14;;;;;;;4.67;3.13;;;11.40;99.90;;;10.94;100.00;97888.88;5043210;28;20852;-72
2024/04/05 05:13:40;;;;;;;4.50;3.63;;;11.50;99.90;;;11.04;100.00;97894.63;5039931;28;20495;-72
2024/04/05 05:16:09;;;;;;;5.67;3.60;;;11.50;99.90;;;11.08;100.00;97886.91;5041728;28;20532;-72
2024/04/05 05:18:35;;;;;;;7.83;3.60;;;11.60;99.90;;;10.89;100.00;97886.81;5030356;28;20474;-72
2024/04/05 05:21:03;;;;;;;7.22;3.85;;;11.50;99.90;;;10.93;100.00;97898.03;5033797;28;20544;-71
2024/04/05 05:23:30;;;;;;;3.60;3.30;;;11.50;99.90;;;11.13;100.00;97902.44;5041283;28;20226;-72
2024/04/05 05:25:58;;;;;;;3.73;3.33;;;11.60;99.90;;;11.09;100.00;97906.63;5034697;28;20884;-72
2024/04/05 05:28:25;;;;;;;5.40;3.40;;;11.60;99.90;;;10.91;100.00;97900.13;5036482;28;20472;-70
2024/04/05 05:30:52;;;;;;;3.57;3.20;;;11.60;99.90;;;11.05;100.00;97906.25;5039705;28;20848;-73
2024/04/05 05:33:19;;;;;;;4.47;3.20;;;11.60;99.90;;;10.94;100.00;97894.28;5030651;28;20477;-80
2024/04/05 05:35:45;;;;;;;7.70;3.30;;;11.60;99.90;;;11.02;100.00;97901.28;5035434;28;20485;-73
2024/04/05 05:38:12;;;;;;;4.47;3.00;;;11.60;99.90;;;11.04;100.00;97902.72;5035873;28;20567;-72
2024/04/05 05:40:40;;;;;;;5.00;2.93;;;11.70;99.90;;;11.01;100.00;97903.19;5036544;28;20474;-73
2024/04/05 05:43:08;;;;;;;5.07;2.80;;;11.60;99.90;;;11.12;100.00;97901.63;5036458;28;20573;-71
2024/04/05 05:45:34;;;;;;;4.40;2.80;;;11.70;99.90;;;10.99;100.00;97901.72;5034527;28;20496;-72
2024/04/05 05:48:02;;;;;;;4.70;3.17;;;11.60;99.90;;;10.95;100.00;97903.22;5035884;28;20481;-69
2024/04/05 05:50:28;;;;;;;3.37;3.03;;;11.60;99.90;;;10.89;100.00;97903.03;5038600;28;20469;-70
2024/04/05 05:52:57;;;;;;;3.40;2.33;;;11.60;99.90;;;11.07;100.00;97914.13;5040002;28;20499;-70
2024/04/05 05:55:27;;;;;;;4.37;3.13;;;11.60;99.90;;;11.05;100.00;97907.09;5038152;28;20470;-70
2024/04/05 05:57:57;;;;;;;3.13;2.63;;;11.70;99.90;;;11.01;100.00;97916.69;5033223;28;20574;-70
2024/04/05 06:00:24;;;;;;;4.80;3.23;;;11.60;99.80;;;11.20;100.00;97919.44;5035988;28;20476;-70
2024/04/05 06:02:53;;;;;;;4.80;2.93;;;11.70;99.90;;;11.04;100.00;97920.81;5037414;28;20483;-71
2024/04/05 06:05:23;;;;;;;2.60;2.40;;;11.70;99.90;;;11.16;100.00;97929.06;5038389;28;20499;-71
2024/04/05 06:07:52;;;;;;;4.90;3.07;;;11.70;99.70;;;11.19;100.00;97918.59;5037081;28;20468;-70
2024/04/05 06:10:19;;;;;;;10.43;3.63;;;11.80;99.30;;;11.19;100.00;97879.94;5041450;28;20469;-69
2024/04/05 06:12:46;;;;;;;7.30;5.83;;;11.90;99.90;;;11.49;100.00;97927.91;5039241;28;21220;-68
2024/04/05 06:15:13;;;;;;;3.90;3.03;;;12.00;98.90;;;11.60;100.00;97919.06;5037580;28;20474;-70
2024/04/05 06:17:41;;;;;;;5.00;3.20;;;12.10;98.10;;;11.66;100.00;97928.13;5036865;28;21268;-80
2024/04/05 06:20:10;;;;;;;4.43;2.90;;;12.10;98.10;;;11.62;100.00;97925.06;5036017;28;20471;-71
2024/04/05 06:22:37;;;;;;;7.90;3.60;;;12.10;97.20;;;11.82;100.00;97924.00;5044102;28;20592;-72
2024/04/05 06:25:04;;;;;;;5.33;3.50;;;12.20;97.40;;;11.85;100.00;97928.97;5043015;28;20520;-74
2024/04/05 06:27:31;;;;;;;5.20;3.57;;;12.30;96.90;;;12.13;100.00;97924.06;5044918;28;20490;-72
2024/04/05 06:29:58;;;;;;;8.60;3.77;;;12.60;95.90;;;12.19;100.00;97921.28;5041722;28;20478;-71
2024/04/05 06:32:27;;;;;;;4.17;3.40;;;12.80;95.40;;;12.08;100.00;97919.38;5048521;28;20530;-71
2024/04/05 06:34:53;;;;;;;6.03;3.20;;;12.80;94.70;;;12.09;100.00;97917.47;5042851;28;20480;-71
2024/04/05 06:37:20;;;;;;;4.57;3.13;;;12.80;93.80;;;12.43;98.87;97913.28;5043077;28;20542;-71
2024/04/05 06:39:47;;;;;;;3.60;2.60;;;13.00;94.00;;;12.17;100.00;97919.88;5044359;28;20487;-71
2024/04/05 06:42:14;;;;;;;4.93;3.00;;;12.90;93.60;;;12.10;100.00;97917.25;5043222;28;21160;-71
2024/04/05 06:44:40;;;;;;;4.13;2.97;;;12.90;93.70;;;12.41;99.75;97928.94;5043049;28;20500;-72
2024/04/05 06:47:09;;;;;;;5.63;3.00;;;13.00;93.80;;;12.74;97.16;97927.63;5044786;28;20474;-72
2024/04/05 06:49:38;;;;;;;5.53;2.87;;;13.20;93.40;;;12.58;98.10;97934.50;5042977;28;20482;-72
2024/04/05 06:52:07;;;;;;;4.80;2.83;;;13.30;93.20;;;12.65;97.60;97931.72;5045130;28;20481;-72
2024/04/05 06:54:34;;;;;;;3.80;2.70;;;13.30;92.90;;;12.91;95.52;97918.00;5042989;28;20472;-71
2024/04/05 06:57:03;;;;;;;4.70;2.80;;;13.50;92.70;;;13.09;93.53;97927.91;5045629;28;20857;-72
2024/04/05 06:59:32;;;;;;;4.30;3.10;;;13.60;92.10;;;13.07;92.71;97930.03;5042770;28;20503;-72
2024/04/05 07:01:59;;;;;;;7.13;3.07;;;13.70;91.60;;;13.36;92.17;97932.91;5044251;28;20553;-72
2024/04/05 07:04:26;;;;;;;5.23;2.80;;;13.80;91.80;;;13.14;93.02;97930.78;5035024;28;20509;-72
2024/04/05 07:06:55;;;;;;;5.17;3.10;;;13.70;91.80;;;13.27;93.05;97935.97;5042451;28;20472;-73
2024/04/05 07:09:22;;;;;;;5.40;2.73;;;13.80;91.90;;;13.22;92.37;97919.56;5042807;28;20531;-72
2024/04/05 07:11:50;;;;;;;3.60;2.90;;;13.80;91.60;;;13.06;92.86;97925.69;5042117;28;20829;-72
2024/04/05 07:14:17;;;;;;;3.60;2.57;;;13.70;91.40;;;13.30;91.83;97935.50;5038017;28;21306;-72
2024/04/05 07:16:45;;;;;;;3.57;2.33;;;13.70;91.40;;;13.32;91.58;97933.38;5042815;28;20489;-72
2024/04/05 07:19:11;;;;;;;5.77;3.67;;;13.80;91.50;;;13.04;92.69;97926.75;5042696;28;20473;-73
2024/04/05 07:21:38;;;;;;;5.87;2.87;;;13.70;91.40;;;13.19;92.55;97928.16;5060484;28;20534;-72
2024/04/05 07:24:07;;;;;;;4.60;2.83;;;13.70;91.70;;;13.08;93.30;97937.13;5042601;28;20973;-73
2024/04/05 07:26:34;;;;;;;3.37;2.70;;;13.70;91.70;;;12.97;94.07;97942.31;5042312;28;20468;-72
2024/04/05 07:29:01;;;;;;;4.07;2.97;;;13.70;91.60;;;13.01;94.10;97938.06;5042369;28;20574;-72
2024/04/05 07:31:28;;;;;;;6.47;3.27;;;13.70;91.60;;;12.96;94.22;97939.81;5038566;28;20476;-72
2024/04/05 07:33:55;;;;;;;4.60;2.93;;;13.70;91.50;;;13.12;94.45;97932.91;5039311;28;20481;-72
2024/04/05 07:36:22;;;;;;;3.90;3.13;;;13.70;91.80;;;13.34;93.02;97941.25;5036235;28;21190;-73
2024/04/05 07:38:50;;;;;;;4.00;2.90;;;13.80;91.80;;;13.24;92.20;97931.00;5043491;28;20476;-72
2024/04/05 07:41:19;;;;;;;4.60;3.20;;;14.00;91.50;;;13.21;93.23;97926.03;5043015;28;20487;-72
2024/04/05 07:43:45;;;;;;;6.80;4.00;;;13.90;91.40;;;13.38;92.09;97933.47;5040748;28;20501;-73
2024/04/05 07:46:12;;;;;;;5.43;2.77;;;14.10;91.30;;;13.26;92.13;97939.72;5041845;28;20542;-72
2024/04/05 07:48:39;;;;;;;3.93;2.77;;;14.00;91.10;;;13.50;91.45;97939.78;5032174;28;20466;-71
2024/04/05 07:51:06;;;;;;;3.00;2.70;;;14.10;91.10;;;13.77;90.01;97939.28;5042275;28;20478;-73
2024/04/05 07:53:32;;;;;;;4.17;2.53;;;14.30;91.10;;;13.85;87.74;97928.03;5052982;28;20492;-73
2024/04/05 07:56:01;;;;;;;4.23;2.40;;;14.40;90.60;;;13.92;88.05;97929.81;5031683;28;20483;-72
2024/04/05 07:58:28;;;;;;;4.10;2.50;;;14.40;90.60;;;13.83;88.30;97932.06;5042045;28;21030;-72
2024/04/05 08:00:56;;;;;;;3.90;2.60;;;14.40;90.60;;;14.00;87.78;97940.28;5038405;28;20505;-72
2024/04/05 08:03:23;;;;;;;4.47;2.13;;;14.60;90.50;;;14.21;85.07;97916.28;5037718;28;20481;-72
2024/04/05 08:05:50;;;;;;;3.40;2.70;;;14.80;90.20;;;14.20;85.15;97930.94;5050180;28;20596;-72
2024/04/05 08:08:17;;;;;;;2.93;2.20;;;14.90;89.90;;;14.44;84.29;97937.91;5046064;28;20488;-74
2024/04/05 08:10:44;;;;;;;2.40;2.00;;;15.00;89.50;;;14.50;82.74;97925.25;5044105;28;21092;-71
2024/04/05 08:13:10;;;;;;;4.23;2.40;;;15.10;88.80;;;14.76;82.58;97922.19;5037901;28;20481;-72
2024/04/05 08:15:40;;;;;;;2.93;1.77;;;15.30;88.80;;;15.02;80.13;97927.00;5042996;28;20587;-73
2024/04/05 08:18:06;;;;;;;2.80;1.73;;;15.60;87.70;;;15.42;79.36;97929.81;5043065;28;20900;-72
2024/04/05 08:20:33;;;;;;;5.47;2.30;;;15.90;87.60;;;15.40;78.53;97931.97;5043587;28;20629;-72
2024/04/05 08:23:00;;;;;;;6.17;2.17;;;16.00;86.90;;;15.61;76.29;97932.25;5040974;28;20480;-72
2024/04/05 08:25:27;;;;;;;6.37;2.33;;;16.10;85.90;;;15.43;76.56;97926.00;5041110;28;20484;-72
2024/04/05 08:27:54;;;;;;;2.60;2.07;;;16.00;85.70;;;15.58;76.19;97925.41;5046245;28;21073;-73
2024/04/05 08:30:21;;;;;;;3.20;2.10;;;16.00;85.60;;;16.00;75.12;97929.53;5044296;28;20568;-72
2024/04/05 08:32:49;;;;;;;4.93;2.17;;;16.40;85.50;;;16.17;74.52;97932.19;5039035;28;20473;-75
2024/04/05 08:35:17;;;;;;;4.50;2.40;;;16.60;85.20;;;16.12;72.13;97932.94;5038049;28;20509;-73
2024/04/05 08:37:44;;;;;;;4.70;2.60;;;16.60;83.90;;;16.36;71.02;97916.34;5045809;28;20502;-72
2024/04/05 08:40:13;;;;;;;3.07;1.80;;;16.80;83.50;;;16.41;70.69;97908.19;5047399;28;20481;-72
2024/04/05 08:42:41;;;;;;;6.80;2.10;;;16.80;83.10;;;16.48;70.91;97904.47;5046163;28;20816;-72
2024/04/05 08:45:13;;;;;;;3.13;1.93;;;17.00;83.20;;;16.51;70.66;97902.03;5044973;28;20580;-71
2024/04/05 08:47:40;;;;;;;2.77;1.97;;;17.10;83.00;;;16.69;69.52;97909.03;5047818;28;20841;-72
2024/04/05 08:50:14;;;;;;;1.73;1.20;;;17.20;82.50;;;16.72;69.21;97918.63;5043299;28;20477;-73
2024/04/05 08:52:40;;;;;;;1.90;1.67;;;17.20;82.20;;;16.75;69.14;97918.09;5043631;28;20458;-72
2024/04/05 08:55:08;;;;;;;6.03;2.20;;;17.20;82.10;;;16.86;68.61;97924.47;5034332;28;20491;-72
2024/04/05 08:57:38;;;;;;;1.70;1.60;;;17.20;81.80;;;16.94;68.67;97918.53;5043854;28;20491;-73
2024/04/05 09:00:08;;;;;;;4.70;2.10;;;17.40;82.00;;;17.17;67.36;97924.75;5047444;28;20487;-73
2024/04/05 09:02:35;;;;;;;4.27;1.83;;;17.40;81.40;;;17.24;67.36;97917.19;5043468;28;20482;-73
2024/04/05 09:05:05;;;;;;;3.17;1.83;;;17.60;81.40;;;17.05;66.50;97913.19;5043653;28;20499;-73
2024/04/05 09:07:34;;;;;;;3.80;1.80;;;17.60;80.60;;;16.88;67.64;97918.75;5043263;28;20475;-73
2024/04/05 09:10:10;;;;;;;2.47;1.60;;;17.50;80.70;;;17.09;65.53;97912.41;5044212;28;20574;-73
2024/04/05 09:12:48;;;;;;;3.00;1.40;;;17.50;79.90;;;17.08;66.36;97909.94;5038469;28;20531;-72
2024/04/05 09:15:24;;;;;;;3.03;1.93;;;17.50;80.10;;;16.98;66.17;97911.47;5042430;28;20614;-72
2024/04/05 09:17:50;;;;;;;6.33;2.40;;;17.50;80.00;;;17.21;66.17;97909.50;5040445;28;20480;-72
2024/04/05 09:20:24;;;;;;;2.10;1.57;;;17.60;80.40;;;17.39;65.13;97915.63;5044157;28;20559;-72
2024/04/05 09:22:59;;;;;;;3.80;1.20;;;17.70;79.80;;;17.27;64.69;97913.91;5039746;28;20515;-72
2024/04/05 09:25:27;;;;;;;3.80;1.40;;;17.80;79.30;;;17.43;64.39;97914.03;5044766;28;20589;-72
2024/04/05 09:28:08;;;;;;;2.07;1.53;;;17.80;79.10;;;17.71;63.91;97895.63;5037161;28;20484;-72
2024/04/05 09:30:36;;;;;;;1.70;1.60;;;17.90;79.20;;;17.81;63.37;97901.13;5043321;28;20981;-73
2024/04/05 09:33:03;;;;;;;4.50;1.70;;;18.20;79.00;;;17.60;62.79;97900.22;5037314;28;20482;-72
2024/04/05 09:35:31;;;;;;;2.80;1.23;;;18.20;78.10;;;17.49;62.59;97902.03;5043909;28;20511;-70
2024/04/05 09:38:00;;;;;;;2.53;1.50;;;18.00;77.50;;;17.71;62.48;97912.00;5046296;28;20481;-72
2024/04/05 09:40:27;;;;;;;1.87;1.70;;;18.10;77.80;;;17.69;62.46;97893.13;5049007;28;20475;-73
2024/04/05 09:42:54;;;;;;;1.70;1.60;;;18.20;77.80;;;17.77;62.18;97900.00;5038529;28;21015;-72
2024/04/05 09:45:23;;;;;;;3.10;1.60;;;18.10;77.70;;;17.94;62.29;97908.03;5044182;28;20487;-73
2024/04/05 09:47:50;;;;;;;1.40;1.30;;;18.30;77.70;;;17.88;61.95;97900.06;5042378;28;20471;-71
2024/04/05 09:50:18;;;;;;;2.30;1.20;;;18.30;77.10;;;17.92;61.33;97888.34;5042051;28;20478;-72
2024/04/05 09:52:46;;;;;;;2.03;1.53;;;18.40;76.80;;;17.93;61.79;97891.88;5044941;28;21384;-72
2024/04/05 09:55:16;;;;;;;4.17;1.77;;;18.30;77.00;;;18.09;60.74;97890.06;5044768;28;21080;-73
2024/04/05 09:57:45;;;;;;;3.60;1.60;;;18.50;76.60;;;18.21;60.19;97879.72;5042815;28;20478;-73
2024/04/05 10:00:17;;;;;;;2.80;1.60;;;18.50;76.30;;;18.47;59.17;97878.97;5037889;28;20535;-71
2024/04/05 10:02:46;;;;;;;3.87;1.43;;;18.70;75.70;;;18.25;58.84;97882.72;5042776;28;20474;-72
2024/04/05 10:05:25;;;;;;;3.23;1.33;;;18.70;75.10;;;18.35;59.73;97885.50;5037735;28;20477;-73
2024/04/05 10:07:51;;;;;;;1.80;1.33;;;18.70;75.60;;;18.55;58.93;97870.22;5032126;28;20482;-73
2024/04/05 10:10:32;;;;;;;2.60;1.33;;;18.90;75.40;;;18.54;58.34;97863.94;5031774;28;20487;-73
2024/04/05 10:13:10;;;;;;;5.13;1.27;;;19.10;74.80;;;18.66;58.10;97860.94;5040604;28;20489;-72
2024/04/05 10:15:38;;;;;;;2.40;1.20;;;19.10;74.40;;;18.64;57.29;97865.84;5034100;28;20486;-72
2024/04/05 10:18:06;;;;;;;4.53;1.17;;;19.30;73.70;;;18.73;56.07;97865.31;5043222;28;20471;-73
2024/04/05 10:20:34;;;;;;;1.67;0.93;;;19.20;72.70;;;18.91;56.02;97867.53;5042197;28;20508;-73